Time;durP1;ratioP1;P1;durP2;ratioP2;P2;SDS_P1;SDS_P2;PMS_P1;PMS_P2;Temp;Humidity;BMP_temperature;BMP_pressure;BME280_temperature;BME280_humidity;BME280_pressure;Samples;Min_cycle;Max_cycle;Signal;HPM_P1;HPM_P2
2024/02/05 00:01:40;;;;;;;13.05;3.72;;;11.10;99.90;;;;;;8451877;28;20101;-73
2024/02/05 00:05:42;;;;;;;19.90;5.00;;;11.00;99.90;;;;;;8450159;28;20048;-72
2024/02/05 00:09:44;;;;;;;14.05;3.90;;;11.00;99.90;;;;;;8451460;28;20044;-73
2024/02/05 00:13:46;;;;;;;16.50;4.00;;;11.00;99.90;;;;;;8453231;28;20051;-73
2024/02/05 00:17:48;;;;;;;13.05;3.03;;;11.00;99.90;;;;;;8447845;28;20105;-72
2024/02/05 00:21:50;;;;;;;17.92;4.97;;;11.00;99.90;;;;;;8457098;28;20100;-72
2024/02/05 00:25:51;;;;;;;16.08;4.10;;;11.00;99.90;;;;;;8447353;28;20035;-73
2024/02/05 00:29:53;;;;;;;12.80;4.20;;;11.00;99.90;;;;;;8435296;28;20046;-73
2024/02/05 00:33:55;;;;;;;20.13;4.75;;;11.00;99.90;;;;;;8436762;28;20047;-73
2024/02/05 00:37:57;;;;;;;15.50;4.35;;;10.90;99.90;;;;;;8440195;28;20046;-72
2024/02/05 00:42:14;;;;;;;11.55;3.42;;;10.90;99.90;;;;;;8438563;28;20035;-72
2024/02/05 00:46:29;;;;;;;12.95;3.80;;;10.90;99.90;;;;;;8439827;28;20102;-72
2024/02/05 00:50:31;;;;;;;12.63;4.00;;;10.90;99.90;;;;;;8446917;28;20040;-73
2024/02/05 00:54:33;;;;;;;15.95;4.25;;;10.80;99.90;;;;;;8453453;28;20035;-73
2024/02/05 00:58:35;;;;;;;15.02;3.78;;;10.80;99.90;;;;;;8444619;28;20411;-72
2024/02/05 01:02:37;;;;;;;21.20;5.57;;;10.80;99.90;;;;;;8440396;28;20052;-72
2024/02/05 01:06:51;;;;;;;16.45;3.72;;;10.80;99.90;;;;;;8433480;28;20054;-72
2024/02/05 01:10:53;;;;;;;10.98;3.97;;;10.80;99.90;;;;;;8443670;28;20432;-73
2024/02/05 01:14:55;;;;;;;17.58;3.78;;;10.80;99.90;;;;;;8440113;28;20044;-73
2024/02/05 01:19:34;;;;;;;12.27;4.03;;;10.80;99.90;;;;;;8454877;28;20096;-73
2024/02/05 01:23:36;;;;;;;17.40;4.30;;;10.70;99.90;;;;;;8454079;28;20486;-72
2024/02/05 01:27:38;;;;;;;19.60;4.90;;;10.70;99.90;;;;;;8427121;28;20040;-73
2024/02/05 01:31:45;;;;;;;20.67;3.88;;;10.70;99.90;;;;;;8430742;28;20108;-73
2024/02/05 01:35:47;;;;;;;16.00;3.72;;;10.70;99.90;;;;;;8446711;28;20047;-73
2024/02/05 01:39:49;;;;;;;17.88;4.32;;;10.60;99.90;;;;;;8447601;28;20097;-72
2024/02/05 01:43:51;;;;;;;21.90;4.57;;;10.50;99.90;;;;;;8451941;28;20487;-73
2024/02/05 01:47:53;;;;;;;16.58;4.03;;;10.40;99.90;;;;;;8455972;28;20403;-72
2024/02/05 01:51:57;;;;;;;13.10;4.07;;;10.40;99.90;;;;;;8461169;28;20050;-73
2024/02/05 01:56:12;;;;;;;14.57;4.20;;;10.40;99.90;;;;;;8441344;28;20453;-73
2024/02/05 02:00:14;;;;;;;16.30;3.47;;;10.30;99.90;;;;;;8453599;28;20069;-73
2024/02/05 02:04:17;;;;;;;22.30;4.40;;;10.30;99.90;;;;;;8453867;28;20063;-72
2024/02/05 02:08:21;;;;;;;14.63;4.78;;;10.20;99.90;;;;;;8457996;27;20054;-72
2024/02/05 02:12:22;;;;;;;17.50;4.63;;;10.20;99.90;;;;;;8455504;28;20047;-73
2024/02/05 02:16:38;;;;;;;13.77;4.10;;;10.20;99.90;;;;;;8449361;27;20093;-72
2024/02/05 02:20:51;;;;;;;18.00;4.68;;;10.10;99.90;;;;;;8458881;28;20084;-72
2024/02/05 02:24:53;;;;;;;17.40;4.13;;;10.10;99.90;;;;;;8456982;28;20449;-73
2024/02/05 02:28:55;;;;;;;14.50;4.22;;;10.00;99.90;;;;;;8452838;27;20043;-72
2024/02/05 02:33:22;;;;;;;17.65;3.88;;;10.00;99.90;;;;;;8435254;28;20457;-72
2024/02/05 02:37:29;;;;;;;16.57;4.43;;;9.90;99.90;;;;;;8453658;28;20088;-73
2024/02/05 02:41:35;;;;;;;18.20;4.07;;;9.90;99.90;;;;;;8459194;28;20130;-72
2024/02/05 02:45:37;;;;;;;17.75;4.43;;;9.90;99.90;;;;;;8449677;28;20046;-72
2024/02/05 02:49:39;;;;;;;11.02;4.28;;;9.90;99.90;;;;;;8455732;27;20079;-72
2024/02/05 02:53:40;;;;;;;15.63;4.43;;;9.90;99.90;;;;;;8457874;28;20048;-72
2024/02/05 02:57:42;;;;;;;20.50;5.00;;;10.00;99.90;;;;;;8445942;28;20055;-73
2024/02/05 03:01:44;;;;;;;20.35;5.25;;;10.00;99.90;;;;;;8450998;27;20040;-73
2024/02/05 03:05:46;;;;;;;21.10;6.18;;;10.10;99.90;;;;;;8456645;28;20138;-72
2024/02/05 03:09:48;;;;;;;14.70;4.78;;;10.10;99.90;;;;;;8439821;28;20147;-72
2024/02/05 03:13:50;;;;;;;15.48;4.72;;;10.10;99.90;;;;;;8444706;28;20082;-73
2024/02/05 03:17:58;;;;;;;16.98;4.95;;;10.20;99.90;;;;;;8445842;27;20063;-73
2024/02/05 03:22:00;;;;;;;16.50;5.20;;;10.20;99.90;;;;;;8455181;27;20754;-73
2024/02/05 03:26:02;;;;;;;19.25;5.03;;;10.20;99.90;;;;;;8427861;27;20051;-72
2024/02/05 03:30:04;;;;;;;19.10;4.72;;;10.20;99.90;;;;;;8422007;28;20491;-73
2024/02/05 03:34:06;;;;;;;16.27;4.15;;;10.20;99.90;;;;;;8432349;28;20040;-73
2024/02/05 03:38:08;;;;;;;17.92;5.47;;;10.20;99.90;;;;;;8460282;27;20730;-73
2024/02/05 03:42:10;;;;;;;17.25;4.53;;;10.10;99.90;;;;;;8434789;28;20093;-73
2024/02/05 03:46:42;;;;;;;16.52;4.88;;;10.00;99.90;;;;;;8456500;27;20061;-73
2024/02/05 03:50:44;;;;;;;23.70;5.57;;;10.00;99.90;;;;;;8445732;27;20102;-73
2024/02/05 03:54:46;;;;;;;22.05;5.20;;;10.00;99.90;;;;;;8447185;27;20044;-73
2024/02/05 03:58:49;;;;;;;15.50;4.55;;;10.00;99.90;;;;;;8434758;28;20040;-73
2024/02/05 04:03:09;;;;;;;15.77;4.85;;;9.90;99.90;;;;;;8451902;28;20588;-72
2024/02/05 04:07:11;;;;;;;18.42;6.32;;;9.90;99.90;;;;;;8441187;28;20486;-73
2024/02/05 04:11:13;;;;;;;25.42;5.20;;;9.80;99.90;;;;;;8448914;27;20039;-73
2024/02/05 04:15:15;;;;;;;19.30;5.45;;;9.80;99.90;;;;;;8434570;28;20051;-72
2024/02/05 04:19:17;;;;;;;16.98;5.50;;;9.70;99.90;;;;;;8439494;28;20040;-73
2024/02/05 04:23:19;;;;;;;16.45;6.22;;;9.70;99.90;;;;;;8450872;28;20046;-73
2024/02/05 04:27:21;;;;;;;18.90;5.72;;;9.70;99.90;;;;;;8444584;28;20047;-73
2024/02/05 04:31:23;;;;;;;23.10;5.63;;;9.70;99.90;;;;;;8453142;28;20047;-73
2024/02/05 04:35:25;;;;;;;23.00;5.45;;;9.70;99.90;;;;;;8447685;28;20078;-73
2024/02/05 04:39:27;;;;;;;19.80;5.07;;;9.70;99.90;;;;;;8446800;28;20081;-72
2024/02/05 04:43:29;;;;;;;21.27;5.43;;;9.70;99.90;;;;;;8455202;28;20718;-73
2024/02/05 04:47:31;;;;;;;18.80;5.35;;;9.70;99.90;;;;;;8439539;28;20484;-73
2024/02/05 04:51:32;;;;;;;22.88;6.50;;;9.70;99.90;;;;;;8425942;28;20089;-73
2024/02/05 04:55:36;;;;;;;20.40;6.15;;;9.60;99.90;;;;;;8431590;28;20486;-72
2024/02/05 04:59:41;;;;;;;17.37;6.63;;;9.60;99.90;;;;;;8398404;28;20064;-72
2024/02/05 05:03:43;;;;;;;18.17;4.95;;;9.60;99.90;;;;;;8393949;28;20098;-73
2024/02/05 05:07:45;;;;;;;18.75;5.25;;;9.60;99.90;;;;;;8391122;28;20049;-73
2024/02/05 05:11:48;;;;;;;23.58;6.00;;;9.60;99.90;;;;;;8378679;28;20063;-73
2024/02/05 05:15:49;;;;;;;20.27;5.70;;;9.60;99.90;;;;;;8385917;28;20165;-72
2024/02/05 05:19:51;;;;;;;19.85;6.15;;;9.60;99.90;;;;;;8367768;28;20037;-72
2024/02/05 05:23:54;;;;;;;19.40;4.97;;;9.60;99.90;;;;;;8388730;28;20055;-72
2024/02/05 05:27:55;;;;;;;16.17;5.18;;;9.60;99.90;;;;;;8383073;28;20040;-73
2024/02/05 05:31:57;;;;;;;16.90;6.03;;;9.70;99.90;;;;;;8395552;28;20063;-72
2024/02/05 05:35:59;;;;;;;18.50;6.28;;;9.70;99.90;;;;;;8392783;28;20049;-73
2024/02/05 05:40:01;;;;;;;17.25;5.35;;;9.60;99.90;;;;;;8387089;28;20056;-73
2024/02/05 05:44:03;;;;;;;15.40;5.07;;;9.60;99.90;;;;;;8393084;28;20041;-73
2024/02/05 05:48:07;;;;;;;17.48;5.45;;;9.70;99.90;;;;;;8387899;28;20063;-73
2024/02/05 05:52:09;;;;;;;13.32;4.82;;;9.60;99.90;;;;;;8381420;28;20052;-73
2024/02/05 05:56:11;;;;;;;15.90;6.32;;;9.60;99.90;;;;;;8389340;28;20548;-73
2024/02/05 06:00:13;;;;;;;20.40;6.45;;;9.60;99.90;;;;;;8438453;27;20043;-72
2024/02/05 06:04:15;;;;;;;14.48;5.18;;;9.60;99.90;;;;;;8441260;28;20570;-72
2024/02/05 06:08:18;;;;;;;16.55;5.82;;;9.60;99.90;;;;;;8451371;28;20487;-72
2024/02/05 06:12:20;;;;;;;21.85;5.82;;;9.60;99.90;;;;;;8459402;28;20051;-72
2024/02/05 06:16:22;;;;;;;22.83;5.97;;;9.60;99.90;;;;;;8448107;28;20495;-72
2024/02/05 06:20:24;;;;;;;15.63;5.50;;;9.50;99.90;;;;;;8426690;28;20055;-72
2024/02/05 06:24:27;;;;;;;19.48;6.63;;;9.50;99.90;;;;;;8457954;28;20767;-72
2024/02/05 06:28:29;;;;;;;27.98;7.13;;;9.50;99.90;;;;;;8455294;28;20063;-72
2024/02/05 06:32:31;;;;;;;14.32;5.05;;;9.50;99.90;;;;;;8454236;28;20042;-72
2024/02/05 06:36:33;;;;;;;16.75;5.10;;;9.50;99.90;;;;;;8455369;28;20778;-73
2024/02/05 06:40:35;;;;;;;25.15;6.13;;;9.50;99.90;;;;;;8455001;28;20040;-72
2024/02/05 06:44:37;;;;;;;20.52;7.13;;;9.40;99.90;;;;;;8454422;28;20466;-72
2024/02/05 06:48:39;;;;;;;22.55;6.43;;;9.40;99.90;;;;;;8453168;28;20051;-72
2024/02/05 06:52:41;;;;;;;16.35;5.18;;;9.40;99.90;;;;;;8451940;28;20103;-73
2024/02/05 06:56:42;;;;;;;21.60;5.88;;;9.40;99.90;;;;;;8447151;28;20399;-73
2024/02/05 07:00:46;;;;;;;22.92;6.20;;;9.40;99.90;;;;;;8445509;28;20129;-72
2024/02/05 07:04:48;;;;;;;20.20;5.90;;;9.40;99.90;;;;;;8447831;27;20044;-72
2024/02/05 07:08:50;;;;;;;17.90;5.75;;;9.40;99.90;;;;;;8448062;28;20043;-72
2024/02/05 07:12:52;;;;;;;19.05;6.57;;;9.40;99.90;;;;;;8438876;28;20093;-72
2024/02/05 07:16:54;;;;;;;20.08;5.97;;;9.40;99.90;;;;;;8457441;28;20047;-73
2024/02/05 07:20:56;;;;;;;21.00;6.35;;;9.30;99.90;;;;;;8460021;28;20047;-72
2024/02/05 07:24:58;;;;;;;16.23;5.18;;;9.40;99.90;;;;;;8443190;27;20043;-72
2024/02/05 07:29:00;;;;;;;16.88;6.40;;;9.30;99.90;;;;;;8432699;28;20060;-72
2024/02/05 07:33:02;;;;;;;25.35;6.38;;;9.30;99.90;;;;;;8451093;28;20108;-72
2024/02/05 07:37:04;;;;;;;19.65;5.93;;;9.30;99.90;;;;;;8446281;27;20051;-73
2024/02/05 07:41:06;;;;;;;20.42;4.93;;;9.30;99.90;;;;;;8457012;28;20127;-72
2024/02/05 07:45:09;;;;;;;21.90;5.93;;;9.30;99.90;;;;;;8449178;28;20392;-72
2024/02/05 07:49:10;;;;;;;18.23;5.45;;;9.30;99.90;;;;;;8446140;28;20101;-72
2024/02/05 07:53:12;;;;;;;14.63;4.70;;;9.30;99.90;;;;;;8455681;28;20044;-72
2024/02/05 07:57:14;;;;;;;16.60;5.28;;;9.30;99.90;;;;;;8442989;28;20058;-72
2024/02/05 08:01:16;;;;;;;22.05;5.75;;;9.30;99.90;;;;;;8448832;28;20552;-72
2024/02/05 08:05:18;;;;;;;16.90;5.20;;;9.30;99.90;;;;;;8446691;27;20139;-72
2024/02/05 08:09:20;;;;;;;15.38;4.88;;;9.30;99.90;;;;;;8432982;28;20043;-72
2024/02/05 08:13:22;;;;;;;19.08;5.10;;;9.30;99.90;;;;;;8445114;28;20399;-73
2024/02/05 08:17:24;;;;;;;18.50;4.57;;;9.30;99.90;;;;;;8445295;28;20444;-73
2024/02/05 08:21:26;;;;;;;21.58;5.57;;;9.30;99.90;;;;;;8448403;28;20047;-73
2024/02/05 08:25:29;;;;;;;23.45;5.50;;;9.30;99.90;;;;;;8444335;28;20043;-73
2024/02/05 08:29:31;;;;;;;25.77;5.70;;;9.30;99.90;;;;;;8427613;28;20050;-73
2024/02/05 08:33:33;;;;;;;27.13;6.90;;;9.30;99.90;;;;;;8436389;28;20055;-73
2024/02/05 08:37:35;;;;;;;20.48;7.00;;;9.30;99.90;;;;;;8450357;28;20143;-72
2024/02/05 08:41:38;;;;;;;23.20;5.50;;;9.30;99.90;;;;;;8438595;28;20086;-72
2024/02/05 08:45:40;;;;;;;20.30;5.57;;;9.30;99.90;;;;;;8453064;28;20399;-72
2024/02/05 08:49:42;;;;;;;24.35;7.00;;;9.30;99.90;;;;;;8448280;28;20075;-72
2024/02/05 08:53:50;;;;;;;20.55;5.28;;;9.30;99.90;;;;;;8441246;28;20044;-73
2024/02/05 08:57:52;;;;;;;22.45;4.80;;;9.30;99.90;;;;;;8462909;28;20101;-72
2024/02/05 09:01:53;;;;;;;15.05;4.88;;;9.30;99.90;;;;;;8463004;27;20123;-72
2024/02/05 09:05:56;;;;;;;14.48;4.95;;;9.20;99.90;;;;;;8466296;28;20078;-72
2024/02/05 09:09:58;;;;;;;18.75;5.10;;;9.20;99.90;;;;;;8456413;27;20051;-73
2024/02/05 09:13:59;;;;;;;19.63;4.72;;;9.20;99.90;;;;;;8450769;28;20047;-72
2024/02/05 09:18:01;;;;;;;19.27;5.47;;;9.30;99.90;;;;;;8466093;27;20063;-73
2024/02/05 09:22:03;;;;;;;19.83;5.07;;;9.30;99.90;;;;;;8466172;27;20040;-72
2024/02/05 09:26:05;;;;;;;17.38;4.60;;;9.30;99.90;;;;;;8463565;27;20059;-72
2024/02/05 09:30:07;;;;;;;13.38;4.53;;;9.30;99.90;;;;;;8463249;27;20118;-72
2024/02/05 09:34:13;;;;;;;22.80;5.22;;;9.30;99.90;;;;;;8454586;27;20086;-72
2024/02/05 09:38:16;;;;;;;15.55;4.95;;;9.30;99.90;;;;;;8454591;28;20463;-72
2024/02/05 09:42:17;;;;;;;14.48;5.40;;;9.30;99.90;;;;;;8461060;27;20044;-73
2024/02/05 09:46:22;;;;;;;16.60;6.15;;;9.30;99.90;;;;;;8451506;28;20112;-73
2024/02/05 09:50:26;;;;;;;19.35;5.45;;;9.30;99.90;;;;;;8461133;27;20051;-72
2024/02/05 09:54:29;;;;;;;21.90;6.28;;;9.30;99.90;;;;;;8457195;28;20105;-72
2024/02/05 09:58:31;;;;;;;14.55;6.40;;;9.40;99.90;;;;;;8466021;28;20059;-72
2024/02/05 10:02:34;;;;;;;20.63;7.80;;;9.40;99.90;;;;;;8460793;27;20054;-73
2024/02/05 10:06:39;;;;;;;19.48;7.10;;;9.40;99.90;;;;;;8460344;27;20040;-72
2024/02/05 10:10:44;;;;;;;21.48;8.32;;;9.40;99.90;;;;;;8452475;27;20043;-72
2024/02/05 10:14:46;;;;;;;19.88;7.75;;;9.40;99.90;;;;;;8454752;28;20040;-72
2024/02/05 10:18:47;;;;;;;23.25;7.15;;;9.50;99.90;;;;;;8451765;28;20073;-73
2024/02/05 10:22:49;;;;;;;27.35;7.72;;;9.40;99.90;;;;;;8455750;28;20051;-72
2024/02/05 10:26:51;;;;;;;20.45;8.35;;;9.40;99.90;;;;;;8441283;28;20101;-72
2024/02/05 10:31:02;;;;;;;20.90;7.53;;;9.50;99.90;;;;;;8436413;28;20067;-72
2024/02/05 10:35:08;;;;;;;19.27;9.20;;;9.50;99.90;;;;;;8459540;28;20052;-72
2024/02/05 10:39:17;;;;;;;20.08;6.47;;;9.50;99.90;;;;;;8456982;28;20455;-73
2024/02/05 10:43:19;;;;;;;22.02;7.18;;;9.50;99.90;;;;;;8459934;27;20073;-72
2024/02/05 10:47:21;;;;;;;17.65;7.05;;;9.50;99.90;;;;;;8457890;28;20097;-72
2024/02/05 10:51:23;;;;;;;19.92;6.85;;;9.60;99.90;;;;;;8459909;27;20047;-73
2024/02/05 10:55:26;;;;;;;15.10;6.60;;;9.60;99.90;;;;;;8454277;28;20051;-72
2024/02/05 10:59:28;;;;;;;23.23;7.30;;;9.70;99.90;;;;;;8459327;28;20048;-72
2024/02/05 11:03:37;;;;;;;18.70;7.25;;;9.70;99.90;;;;;;8430506;28;20054;-72
2024/02/05 11:07:48;;;;;;;15.75;6.25;;;9.80;99.90;;;;;;8457137;28;20065;-72
2024/02/05 11:11:57;;;;;;;26.33;7.68;;;9.80;99.90;;;;;;8446606;28;20070;-72
2024/02/05 11:16:00;;;;;;;13.52;5.90;;;9.90;99.90;;;;;;8446702;27;20686;-72
2024/02/05 11:20:10;;;;;;;23.77;6.78;;;9.90;99.90;;;;;;8453861;27;20059;-72
2024/02/05 11:24:13;;;;;;;;;;;10.00;99.90;;;;;;8456789;28;20035;-72
2024/02/05 11:28:15;;;;;;;16.75;6.25;;;10.00;99.90;;;;;;8438729;28;20501;-72
2024/02/05 11:32:28;;;;;;;14.60;5.00;;;10.00;99.90;;;;;;8441694;28;20047;-72
2024/02/05 11:36:30;;;;;;;22.20;6.63;;;10.00;99.90;;;;;;8452971;28;20513;-72
2024/02/05 11:40:32;;;;;;;18.45;6.55;;;10.10;99.90;;;;;;8441842;28;20043;-73
2024/02/05 11:44:35;;;;;;;19.13;5.70;;;10.10;99.90;;;;;;8444398;28;20473;-72
2024/02/05 11:48:40;;;;;;;15.98;6.05;;;10.20;99.90;;;;;;8444115;27;20120;-72
2024/02/05 11:52:43;;;;;;;20.85;5.78;;;10.30;99.90;;;;;;8446261;28;20078;-72
2024/02/05 11:56:45;;;;;;;15.60;5.32;;;10.30;99.90;;;;;;8429985;28;20048;-72
2024/02/05 12:00:47;;;;;;;22.85;7.03;;;10.40;99.90;;;;;;8448442;28;20054;-72
2024/02/05 12:04:50;;;;;;;18.65;5.65;;;10.50;99.90;;;;;;8452213;28;20044;-72
2024/02/05 12:08:52;;;;;;;16.27;6.10;;;10.50;99.90;;;;;;8443777;27;20063;-73
2024/02/05 12:12:57;;;;;;;16.00;5.35;;;10.50;99.90;;;;;;8447999;28;20040;-72
2024/02/05 12:17:08;;;;;;;18.60;6.03;;;10.50;99.90;;;;;;8437715;28;20520;-72
2024/02/05 12:21:10;;;;;;;13.35;5.53;;;10.50;99.90;;;;;;8433345;28;20044;-72
2024/02/05 12:25:13;;;;;;;20.50;5.78;;;10.50;99.90;;;;;;8426745;28;20082;-73
2024/02/05 12:29:32;;;;;;;18.20;5.68;;;10.50;99.90;;;;;;8429976;28;20427;-73
2024/02/05 12:33:34;;;;;;;21.00;5.35;;;10.50;99.90;;;;;;8412948;28;20071;-72
2024/02/05 12:37:36;;;;;;;12.80;5.05;;;10.60;99.90;;;;;;8426716;28;20082;-72
2024/02/05 12:41:38;;;;;;;13.20;5.28;;;10.70;99.90;;;;;;8434262;28;20073;-73
2024/02/05 12:45:40;;;;;;;14.80;5.07;;;10.70;99.90;;;;;;8416852;28;20044;-72
2024/02/05 12:49:43;;;;;;;16.25;5.60;;;10.70;99.90;;;;;;8428036;28;20047;-73
2024/02/05 12:53:46;;;;;;;17.15;4.60;;;10.80;99.90;;;;;;8422794;28;20055;-73
2024/02/05 12:57:48;;;;;;;19.73;5.15;;;10.80;99.90;;;;;;8425072;28;20067;-73
2024/02/05 13:01:54;;;;;;;15.07;5.10;;;10.70;99.90;;;;;;8417572;28;20113;-72
2024/02/05 13:06:02;;;;;;;18.33;5.35;;;10.70;99.90;;;;;;8432348;28;20047;-73
2024/02/05 13:10:06;;;;;;;12.68;4.53;;;10.90;99.90;;;;;;8428634;28;20058;-72
2024/02/05 13:14:08;;;;;;;18.60;5.60;;;11.00;99.90;;;;;;8433616;28;20071;-73
2024/02/05 13:18:11;;;;;;;19.55;5.38;;;11.00;99.90;;;;;;8413946;28;20040;-73
2024/02/05 13:22:13;;;;;;;14.80;4.90;;;10.90;99.90;;;;;;8433677;28;20068;-73
2024/02/05 13:26:15;;;;;;;15.18;4.97;;;11.00;99.90;;;;;;8432280;28;20040;-73
2024/02/05 13:30:17;;;;;;;20.20;5.88;;;11.00;99.90;;;;;;8411360;28;20104;-73
2024/02/05 13:34:20;;;;;;;16.92;5.15;;;11.10;99.90;;;;;;8419044;28;20044;-73
2024/02/05 13:38:24;;;;;;;13.75;4.75;;;11.10;99.90;;;;;;8418951;28;20075;-73
2024/02/05 13:42:28;;;;;;;16.00;4.32;;;11.00;99.90;;;;;;8415977;28;20039;-73
2024/02/05 13:46:30;;;;;;;12.35;4.03;;;11.00;99.90;;;;;;8435775;28;20044;-73
2024/02/05 13:50:32;;;;;;;19.58;4.95;;;10.90;99.90;;;;;;8426103;28;20044;-73
2024/02/05 13:54:34;;;;;;;20.60;5.43;;;10.90;99.90;;;;;;8424989;28;20130;-73
2024/02/05 13:58:36;;;;;;;16.95;4.88;;;10.80;99.90;;;;;;8419495;28;20056;-73
2024/02/05 14:02:38;;;;;;;18.92;4.75;;;10.80;99.90;;;;;;8430000;28;20074;-73
2024/02/05 14:06:39;;;;;;;16.65;4.38;;;10.80;99.90;;;;;;8419872;28;20113;-73
2024/02/05 14:10:42;;;;;;;15.60;4.90;;;10.80;99.90;;;;;;8430833;28;20198;-73
2024/02/05 14:14:44;;;;;;;14.63;4.72;;;10.80;99.90;;;;;;8416892;28;20487;-73
2024/02/05 14:18:46;;;;;;;16.58;4.32;;;10.80;99.90;;;;;;8410370;28;20318;-72
2024/02/05 14:22:48;;;;;;;17.50;4.50;;;10.80;99.90;;;;;;8426932;28;20060;-73
2024/02/05 14:26:50;;;;;;;14.73;4.75;;;10.70;99.90;;;;;;8405607;28;20043;-73
2024/02/05 14:30:52;;;;;;;14.80;4.10;;;10.70;99.90;;;;;;8428254;28;20043;-73
2024/02/05 14:34:54;;;;;;;12.93;4.22;;;10.70;99.90;;;;;;8415007;28;20446;-73
2024/02/05 14:38:56;;;;;;;12.55;4.03;;;10.70;99.90;;;;;;8426034;28;20105;-73
2024/02/05 14:42:57;;;;;;;14.98;3.80;;;10.70;99.90;;;;;;8407139;28;20040;-72
2024/02/05 14:46:59;;;;;;;12.35;3.70;;;10.70;99.90;;;;;;8407363;28;20299;-73
2024/02/05 14:51:01;;;;;;;12.95;4.55;;;10.70;99.90;;;;;;8427971;28;20077;-73
2024/02/05 14:55:04;;;;;;;10.95;3.90;;;10.70;99.90;;;;;;8420360;28;20174;-73
2024/02/05 14:59:06;;;;;;;19.30;4.55;;;10.70;99.90;;;;;;8426810;28;20105;-73
2024/02/05 15:03:08;;;;;;;11.35;3.83;;;10.70;99.90;;;;;;8425539;27;20036;-73
2024/02/05 15:07:10;;;;;;;13.18;4.05;;;10.60;99.90;;;;;;8428936;27;20044;-73
2024/02/05 15:11:12;;;;;;;11.90;3.95;;;10.60;99.90;;;;;;8432586;27;20048;-73
2024/02/05 15:15:14;;;;;;;11.07;3.70;;;10.60;99.90;;;;;;8441856;27;20048;-73
2024/02/05 15:19:16;;;;;;;13.52;3.80;;;10.50;99.90;;;;;;8431058;28;20051;-73
2024/02/05 15:23:18;;;;;;;10.15;3.58;;;10.50;99.90;;;;;;8410513;27;20056;-73
2024/02/05 15:27:20;;;;;;;11.65;3.75;;;10.40;99.90;;;;;;8427395;28;20051;-73
2024/02/05 15:31:22;;;;;;;13.38;3.90;;;10.40;99.90;;;;;;8427856;28;20047;-73
2024/02/05 15:35:24;;;;;;;11.90;4.03;;;10.40;99.90;;;;;;8429089;28;20048;-73
2024/02/05 15:39:27;;;;;;;10.63;3.00;;;10.40;99.90;;;;;;8423735;28;20056;-73
2024/02/05 15:43:28;;;;;;;11.82;3.45;;;10.40;99.90;;;;;;8424274;27;20048;-73
2024/02/05 15:47:30;;;;;;;9.68;3.20;;;10.40;99.90;;;;;;8422949;28;20079;-73
2024/02/05 15:51:32;;;;;;;17.25;3.88;;;10.40;99.90;;;;;;8412577;28;20127;-73
2024/02/05 15:55:34;;;;;;;9.55;3.75;;;10.40;99.90;;;;;;8430379;28;20069;-73
2024/02/05 15:59:36;;;;;;;11.95;3.88;;;10.30;99.90;;;;;;8412445;28;20051;-73
2024/02/05 16:03:39;;;;;;;8.75;3.70;;;10.30;99.90;;;;;;8429958;27;20051;-74
2024/02/05 16:07:41;;;;;;;11.27;4.10;;;10.20;99.90;;;;;;8425743;27;20064;-73
2024/02/05 16:11:43;;;;;;;10.18;3.75;;;10.20;99.90;;;;;;8430449;28;20385;-73
2024/02/05 16:15:45;;;;;;;8.55;3.42;;;10.20;99.90;;;;;;8425638;27;20048;-73
2024/02/05 16:19:47;;;;;;;10.18;3.35;;;10.20;99.90;;;;;;8426543;27;20062;-73
2024/02/05 16:23:49;;;;;;;8.60;4.03;;;10.20;99.90;;;;;;8428036;28;20047;-73
2024/02/05 16:27:51;;;;;;;9.70;3.42;;;10.20;99.90;;;;;;8428709;28;20056;-73
2024/02/05 16:31:53;;;;;;;8.30;3.60;;;10.20;99.90;;;;;;8427581;27;20051;-73
2024/02/05 16:35:55;;;;;;;9.80;4.15;;;10.20;99.90;;;;;;8415250;28;20035;-73
2024/02/05 16:39:57;;;;;;;6.75;3.05;;;10.20;99.90;;;;;;8411360;28;20411;-73
2024/02/05 16:43:59;;;;;;;14.38;4.68;;;10.20;99.90;;;;;;8427086;27;20464;-73
2024/02/05 16:48:01;;;;;;;15.25;4.07;;;10.10;99.90;;;;;;8410915;28;20062;-73
2024/02/05 16:52:04;;;;;;;7.07;3.50;;;10.10;99.90;;;;;;8424666;28;20230;-73
2024/02/05 16:56:10;;;;;;;7.88;3.40;;;10.00;99.90;;;;;;8420972;28;20291;-72
2024/02/05 17:00:12;;;;;;;9.30;4.00;;;10.00;99.90;;;;;;8418566;28;20059;-73
2024/02/05 17:04:15;;;;;;;6.25;2.90;;;10.00;99.90;;;;;;8409194;28;20496;-73
2024/02/05 17:08:17;;;;;;;7.80;3.38;;;9.90;99.90;;;;;;8412141;28;20437;-73
2024/02/05 17:17:44;;;;;;;6.75;2.60;;;9.80;99.90;;;;;;8422315;28;20035;-73
2024/02/05 17:21:47;;;;;;;7.00;3.17;;;9.80;99.90;;;;;;8429361;28;20454;-73
2024/02/05 17:25:49;;;;;;;7.25;2.83;;;9.80;99.90;;;;;;8432703;28;20813;-73
2024/02/05 17:29:51;;;;;;;5.70;3.00;;;9.80;99.90;;;;;;8436794;28;20380;-73
2024/02/05 17:33:53;;;;;;;6.45;3.10;;;9.80;99.90;;;;;;8446696;28;20058;-73
2024/02/05 17:37:55;;;;;;;9.52;3.03;;;9.80;99.90;;;;;;8445746;28;20058;-73
2024/02/05 17:41:56;;;;;;;6.40;3.38;;;9.70;99.90;;;;;;8438803;27;20500;-73
2024/02/05 17:45:58;;;;;;;6.95;2.78;;;9.60;99.90;;;;;;8429023;28;20403;-73
2024/02/05 17:50:02;;;;;;;7.18;2.80;;;9.50;99.90;;;;;;8436420;28;20059;-73
2024/02/05 17:54:04;;;;;;;6.75;3.10;;;9.40;99.90;;;;;;8439529;28;20536;-73
2024/02/05 17:58:06;;;;;;;5.60;2.72;;;9.30;99.90;;;;;;8420066;28;20513;-73
2024/02/05 18:02:09;;;;;;;4.57;2.65;;;9.20;99.90;;;;;;8440017;28;20108;-74
2024/02/05 18:06:19;;;;;;;5.93;2.58;;;9.10;99.90;;;;;;8437183;27;20134;-74
2024/02/05 18:10:21;;;;;;;5.15;2.50;;;9.00;99.90;;;;;;8437053;28;20043;-74
2024/02/05 18:14:23;;;;;;;4.18;1.92;;;8.90;99.90;;;;;;8418915;27;20556;-74
2024/02/05 18:18:25;;;;;;;7.65;2.35;;;8.80;99.90;;;;;;8444004;27;20048;-74
2024/02/05 18:22:28;;;;;;;6.25;2.42;;;8.80;99.90;;;;;;8442796;27;20040;-74
2024/02/05 18:26:30;;;;;;;4.45;2.40;;;8.70;99.90;;;;;;8433601;27;20542;-74
2024/02/05 18:30:35;;;;;;;4.07;2.15;;;8.70;99.90;;;;;;8414481;27;20039;-74
2024/02/05 18:34:38;;;;;;;5.90;2.60;;;8.70;99.90;;;;;;8433248;27;20044;-74
2024/02/05 18:38:46;;;;;;;5.63;3.03;;;8.70;99.90;;;;;;8430416;28;20051;-73
2024/02/05 18:42:48;;;;;;;5.68;2.70;;;8.70;99.90;;;;;;8449548;28;20063;-73
2024/02/05 18:46:51;;;;;;;6.60;2.75;;;8.70;99.90;;;;;;8438776;27;20135;-73
2024/02/05 18:50:55;;;;;;;5.25;2.70;;;8.60;99.90;;;;;;8428330;28;20099;-74
2024/02/05 18:54:57;;;;;;;5.60;3.00;;;8.60;99.90;;;;;;8428308;28;20048;-74
2024/02/05 18:58:59;;;;;;;4.95;2.38;;;8.70;99.90;;;;;;8418914;28;20047;-74
2024/02/05 19:03:01;;;;;;;4.85;2.10;;;8.70;99.90;;;;;;8430328;28;20051;-73
2024/02/05 19:07:03;;;;;;;8.02;2.70;;;8.70;99.90;;;;;;8423218;28;20055;-74
2024/02/05 19:11:05;;;;;;;6.10;2.50;;;8.70;99.90;;;;;;8437698;28;20043;-73
2024/02/05 19:15:08;;;;;;;5.28;2.70;;;8.70;99.90;;;;;;8438021;28;20055;-74
2024/02/05 19:19:09;;;;;;;6.90;3.30;;;8.70;99.90;;;;;;8425935;28;20067;-73
2024/02/05 19:23:11;;;;;;;6.88;3.22;;;8.70;99.90;;;;;;8438485;27;20047;-73
2024/02/05 19:27:13;;;;;;;6.13;2.97;;;8.70;99.90;;;;;;8417119;28;20062;-74
2024/02/05 19:31:15;;;;;;;6.20;3.13;;;8.70;99.90;;;;;;8417639;28;20047;-73
2024/02/05 19:35:17;;;;;;;6.15;2.95;;;8.70;99.90;;;;;;8421695;28;20040;-73
2024/02/05 19:39:19;;;;;;;6.32;3.50;;;8.70;99.90;;;;;;8436552;28;20073;-73
2024/02/05 19:43:21;;;;;;;6.00;3.10;;;8.70;99.90;;;;;;8434587;28;20491;-73
2024/02/05 19:47:23;;;;;;;6.57;2.92;;;8.70;99.90;;;;;;8422527;27;20084;-73
2024/02/05 19:51:25;;;;;;;8.25;3.40;;;8.70;99.90;;;;;;8420783;27;20048;-73
2024/02/05 19:55:30;;;;;;;9.90;3.80;;;8.70;99.90;;;;;;8434279;27;20048;-73
2024/02/05 19:59:32;;;;;;;5.70;3.45;;;8.70;99.90;;;;;;8428154;27;20047;-73
2024/02/05 20:03:34;;;;;;;9.68;3.47;;;8.70;99.90;;;;;;8435423;28;20096;-73
2024/02/05 20:07:36;;;;;;;8.55;3.47;;;8.80;99.90;;;;;;8441041;28;20660;-73
2024/02/05 20:11:38;;;;;;;7.47;3.35;;;8.80;99.90;;;;;;8431567;27;20047;-73
2024/02/05 20:15:40;;;;;;;8.95;3.45;;;8.80;99.90;;;;;;8414495;28;20043;-73
2024/02/05 20:19:42;;;;;;;6.10;2.75;;;8.90;99.90;;;;;;8428327;28;20050;-73
2024/02/05 20:23:44;;;;;;;8.65;3.05;;;8.90;99.90;;;;;;8428242;27;20094;-73
2024/02/05 20:27:46;;;;;;;5.75;2.88;;;9.00;99.90;;;;;;8430746;28;20040;-73
2024/02/05 20:31:48;;;;;;;6.75;2.75;;;9.00;99.90;;;;;;8429493;28;20088;-73
2024/02/05 20:35:49;;;;;;;9.50;2.85;;;9.10;99.90;;;;;;8418351;28;20063;-73
2024/02/05 20:39:51;;;;;;;9.85;2.85;;;9.10;99.90;;;;;;8435142;28;20151;-73
2024/02/05 20:43:54;;;;;;;7.30;2.70;;;9.20;99.90;;;;;;8436563;28;20040;-73
2024/02/05 20:47:55;;;;;;;6.78;2.30;;;9.20;99.90;;;;;;8437020;27;20135;-73
2024/02/05 20:51:58;;;;;;;8.70;3.08;;;9.20;99.90;;;;;;8426333;28;20146;-73
2024/02/05 20:55:59;;;;;;;7.65;3.13;;;9.20;99.90;;;;;;8406638;28;20055;-73
2024/02/05 21:00:01;;;;;;;10.13;3.10;;;9.20;99.90;;;;;;8432057;28;20396;-73
2024/02/05 21:04:03;;;;;;;7.40;3.17;;;9.30;99.90;;;;;;8421985;28;20052;-73
2024/02/05 21:08:06;;;;;;;7.18;3.03;;;9.30;99.90;;;;;;8428519;28;20153;-73